createdAt,value
2022-11-29T00:01:29.931Z,99887.03
2022-11-29T00:03:56.580Z,99882.25
2022-11-29T00:06:27.259Z,99885.03
2022-11-29T00:09:04.657Z,99877.25
2022-11-29T00:12:13.644Z,99885.63
2022-11-29T00:14:41.740Z,99877.25
2022-11-29T00:17:08.370Z,99877.25
2022-11-29T00:19:36.353Z,99882.50
2022-11-29T00:22:03.877Z,99869.38
2022-11-29T00:24:32.327Z,99868.66
2022-11-29T00:26:58.940Z,99870.34
2022-11-29T00:29:25.340Z,99877.50
2022-11-29T00:31:51.688Z,99886.94
2022-11-29T00:34:18.131Z,99878.66
2022-11-29T00:36:44.523Z,99880.34
2022-11-29T00:39:12.107Z,99876.50
2022-11-29T00:41:39.560Z,99882.75
2022-11-29T00:44:06.047Z,99867.53
2022-11-29T00:46:32.461Z,99873.88
2022-11-29T00:48:58.853Z,99870.16
2022-11-29T00:51:25.289Z,99879.34
2022-11-29T00:53:51.675Z,99865.25
2022-11-29T00:56:18.181Z,99877.44
2022-11-29T00:58:44.690Z,99879.59
2022-11-29T01:01:12.298Z,99877.19
2022-11-29T01:03:38.784Z,99873.84
2022-11-29T01:06:08.284Z,99868.13
2022-11-29T01:08:35.484Z,99868.47
2022-11-29T01:11:11.475Z,99865.75
2022-11-29T01:13:38.135Z,99875.75
2022-11-29T01:16:05.263Z,99876.00
2022-11-29T01:18:32.633Z,99877.63
2022-11-29T01:21:08.314Z,99879.09
2022-11-29T01:23:35.872Z,99876.59
2022-11-29T01:26:08.516Z,99877.44
2022-11-29T01:28:38.059Z,99885.53
2022-11-29T01:31:15.564Z,99875.50
2022-11-29T01:33:44.568Z,99895.47
2022-11-29T01:36:13.104Z,99882.72
2022-11-29T01:38:39.490Z,99889.38
2022-11-29T01:41:17.901Z,99886.88
2022-11-29T01:43:55.075Z,99885.09
2022-11-29T01:46:21.723Z,99882.97
2022-11-29T01:48:49.121Z,99885.66
2022-11-29T01:51:15.715Z,99886.28
2022-11-29T01:53:42.288Z,99886.63
2022-11-29T01:56:10.096Z,99885.44
2022-11-29T01:58:41.431Z,99883.47
2022-11-29T02:01:11.037Z,99885.94
2022-11-29T02:03:37.561Z,99885.13
2022-11-29T02:06:09.916Z,99893.22
2022-11-29T02:08:42.017Z,99888.22
2022-11-29T02:11:11.200Z,99893.72
2022-11-29T02:13:49.423Z,99895.63
2022-11-29T02:16:34.563Z,99894.09
2022-11-29T02:19:18.021Z,99897.53
2022-11-29T02:21:52.271Z,99897.94
2022-11-29T02:25:03.385Z,99904.94
2022-11-29T02:27:59.579Z,99902.22
2022-11-29T02:30:53.491Z,99903.88
2022-11-29T02:33:26.044Z,99904.94
2022-11-29T02:36:01.488Z,99904.94
2022-11-29T02:38:59.880Z,99912.97
2022-11-29T02:41:50.001Z,99911.06
2022-11-29T02:44:34.672Z,99914.06
2022-11-29T02:47:19.225Z,99907.13
2022-11-29T02:50:18.202Z,99914.53
2022-11-29T02:53:05.976Z,99914.78
2022-11-29T02:55:43.297Z,99917.41
2022-11-29T02:58:25.159Z,99920.03
2022-11-29T03:00:59.477Z,99923.50
2022-11-29T03:03:38.890Z,99924.81
2022-11-29T03:06:37.399Z,99914.78
2022-11-29T03:09:13.393Z,99920.03
2022-11-29T03:11:54.249Z,99922.78
2022-11-29T03:14:27.084Z,99920.28
2022-11-29T03:17:36.442Z,99928.41
2022-11-29T03:20:21.359Z,99925.53
2022-11-29T03:23:09.625Z,99939.66
2022-11-29T03:25:38.769Z,99936.06
2022-11-29T03:28:13.486Z,99932.94
2022-11-29T03:30:49.110Z,99932.13
2022-11-29T03:33:31.823Z,99936.66
2022-11-29T03:36:18.627Z,99934.41
2022-11-29T03:38:47.344Z,99937.84
2022-11-29T03:41:20.132Z,99939.66
2022-11-29T03:43:57.225Z,99938.19
2022-11-29T03:46:42.261Z,99942.75
2022-11-29T03:49:20.784Z,99940.13
2022-11-29T03:51:59.317Z,99943.69
2022-11-29T03:54:31.238Z,99948.72
2022-11-29T03:56:58.002Z,99938.44
2022-11-29T03:59:35.055Z,99942.03
2022-11-29T04:02:29.678Z,99945.59
2022-11-29T04:05:17.927Z,99945.41
2022-11-29T04:07:55.523Z,99938.44
2022-11-29T04:10:49.452Z,99952.56
2022-11-29T04:13:37.286Z,99941.44
2022-11-29T04:16:25.529Z,99943.22
2022-11-29T04:19:19.682Z,99940.84
2022-11-29T04:22:05.539Z,99943.94
2022-11-29T04:24:56.759Z,99949.44
2022-11-29T04:27:38.841Z,99948.72
2022-11-29T04:30:08.465Z,99955.66
2022-11-29T04:32:53.359Z,99953.50
2022-11-29T04:35:44.599Z,99948.47
2022-11-29T04:38:37.924Z,99959.94
2022-11-29T04:41:27.924Z,99961.84
2022-11-29T04:44:03.384Z,99963.31
2022-11-29T04:46:42.272Z,99966.88
2022-11-29T04:49:37.957Z,99962.09
2022-11-29T04:52:23.122Z,99966.88
2022-11-29T04:54:59.872Z,99962.72
2022-11-29T04:57:46.240Z,99967.59
2022-11-29T05:00:20.481Z,99968.56
2022-11-29T05:02:58.505Z,99970.47
2022-11-29T05:05:35.507Z,99970.69
2022-11-29T05:08:37.635Z,99979.06
2022-11-29T05:11:28.755Z,99972.84
2022-11-29T05:14:01.118Z,99973.81
2022-11-29T05:16:53.741Z,99983.59
2022-11-29T05:19:32.178Z,99982.38
2022-11-29T05:22:19.849Z,99973.81
2022-11-29T05:24:56.577Z,99979.31
2022-11-29T05:27:47.210Z,99988.13
2022-11-29T05:30:16.469Z,99985.25
2022-11-29T05:33:20.708Z,99987.66
2022-11-29T05:35:58.453Z,99998.41
2022-11-29T05:38:46.221Z,99996.13
2022-11-29T05:41:36.945Z,99993.13
2022-11-29T05:44:12.586Z,99990.41
2022-11-29T05:47:01.605Z,99991.25
2022-11-29T05:49:47.122Z,100002.59
2022-11-29T05:52:25.016Z,99992.22
2022-11-29T05:55:10.355Z,99993.28
2022-11-29T05:58:04.404Z,99995.31
2022-11-29T06:00:44.316Z,100003.44
2022-11-29T06:03:21.638Z,100001.63
2022-11-29T06:05:56.659Z,100003.31
2022-11-29T06:08:34.180Z,99997.94
2022-11-29T06:11:05.765Z,99998.63
2022-11-29T06:13:49.704Z,100008.22
2022-11-29T06:16:46.222Z,100001.75
2022-11-29T06:19:21.561Z,100017.50
2022-11-29T06:22:09.968Z,100011.69
2022-11-29T06:25:01.363Z,100022.28
2022-11-29T06:27:45.793Z,100025.28
2022-11-29T06:30:20.183Z,100022.53
2022-11-29T06:32:57.803Z,100025.88
2022-11-29T06:35:45.749Z,100027.31
2022-11-29T06:38:20.509Z,100034.94
2022-11-29T06:40:47.345Z,100042.16
2022-11-29T06:43:14.019Z,100039.03
2022-11-29T06:45:46.833Z,100041.91
2022-11-29T06:48:26.101Z,100042.13
2022-11-29T06:51:21.280Z,100043.69
2022-11-29T06:54:01.840Z,100049.53
2022-11-29T06:56:58.141Z,100047.38
2022-11-29T06:59:48.696Z,100045.69
2022-11-29T07:02:50.609Z,100054.31
2022-11-29T07:05:35.296Z,100053.22
2022-11-29T07:08:10.483Z,100059.56
2022-11-29T07:10:39.607Z,100048.56
2022-11-29T07:13:06.272Z,100051.56
2022-11-29T07:15:33.207Z,100049.31
2022-11-29T07:18:25.257Z,100058.00
2022-11-29T07:21:24.105Z,100068.16
2022-11-29T07:24:04.720Z,100072.47
2022-11-29T07:26:59.746Z,100067.09
2022-11-29T07:29:46.156Z,100069.97
2022-11-29T07:32:29.295Z,100080.81
2022-11-29T07:35:04.217Z,100077.16
2022-11-29T07:38:04.448Z,100079.28
2022-11-29T07:40:45.795Z,100074.84
2022-11-29T07:43:18.127Z,100081.56
2022-11-29T07:45:50.913Z,100089.44
2022-11-29T07:48:17.758Z,100080.47
2022-11-29T07:50:45.147Z,100092.19
2022-11-29T07:53:17.253Z,100092.09
2022-11-29T07:55:44.609Z,100102.00
2022-11-29T07:58:15.610Z,100104.84
2022-11-29T08:00:42.744Z,100099.00
2022-11-29T08:03:10.595Z,100097.56
2022-11-29T08:05:39.381Z,100105.69
2022-11-29T08:08:06.157Z,100099.72
2022-11-29T08:10:32.809Z,100101.41
2022-11-29T08:12:59.166Z,100102.34
2022-11-29T08:15:25.870Z,100104.75
2022-11-29T08:17:53.191Z,100113.13
2022-11-29T08:20:20.023Z,100109.41
2022-11-29T08:22:57.672Z,100110.72
2022-11-29T08:25:25.524Z,100105.69
2022-11-29T08:27:52.033Z,100118.84
2022-11-29T08:30:22.004Z,100111.22
2022-11-29T08:32:51.539Z,100109.56
2022-11-29T08:35:22.968Z,100110.97
2022-11-29T08:37:49.788Z,100113.00
2022-11-29T08:40:17.384Z,100117.53
2022-11-29T08:42:43.751Z,100116.81
2022-11-29T08:45:11.118Z,100118.88
2022-11-29T08:47:38.362Z,100115.75
2022-11-29T08:50:12.240Z,100113.84
2022-11-29T08:53:00.440Z,100113.13
2022-11-29T08:55:30.919Z,100115.66
2022-11-29T08:58:03.229Z,100125.56
2022-11-29T09:00:30.699Z,100127.00
2022-11-29T09:03:17.034Z,100129.63
2022-11-29T09:05:43.669Z,100133.94
2022-11-29T09:08:10.544Z,100124.63
2022-11-29T09:10:39.401Z,100132.63
2022-11-29T09:13:06.848Z,100134.66
2022-11-29T09:15:33.516Z,100133.59
2022-11-29T09:17:59.931Z,100138.72
2022-11-29T09:20:26.495Z,100139.09
2022-11-29T09:22:52.842Z,100141.81
2022-11-29T09:25:19.234Z,100141.94
2022-11-29T09:27:45.589Z,100143.88
2022-11-29T09:30:12.309Z,100146.59
2022-11-29T09:32:38.681Z,100137.97
2022-11-29T09:35:05.367Z,100141.69
2022-11-29T09:37:31.731Z,100141.09
2022-11-29T09:39:58.089Z,100143.97
2022-11-29T09:42:52.609Z,100145.19
2022-11-29T09:45:26.743Z,100145.66
2022-11-29T09:48:30.979Z,100140.38
2022-11-29T09:51:04.217Z,100141.94
2022-11-29T09:53:49.187Z,100148.16
2022-11-29T09:56:28.433Z,100147.34
2022-11-29T09:59:01.831Z,100149.84
2022-11-29T10:01:32.517Z,100147.78
2022-11-29T10:04:05.203Z,100151.63
2022-11-29T10:06:38.903Z,100144.91
2022-11-29T10:09:20.495Z,100139.78
2022-11-29T10:11:52.635Z,100143.03
2022-11-29T10:14:31.988Z,100138.94
2022-11-29T10:17:24.828Z,100151.97
2022-11-29T10:19:55.017Z,100145.91
2022-11-29T10:22:40.861Z,100147.56
2022-11-29T10:25:10.480Z,100152.34
2022-11-29T10:27:40.207Z,100148.28
2022-11-29T10:30:12.515Z,100140.38
2022-11-29T10:32:39.588Z,100146.97
2022-11-29T10:35:13.338Z,100148.53
2022-11-29T10:37:40.028Z,100141.81
2022-11-29T10:40:19.181Z,100143.75
2022-11-29T10:42:48.645Z,100145.75
2022-11-29T10:45:26.244Z,100145.84
2022-11-29T10:47:58.009Z,100149.94
2022-11-29T10:50:27.672Z,100158.09
2022-11-29T10:53:12.986Z,100151.59
2022-11-29T10:55:45.813Z,100151.84
2022-11-29T10:58:27.925Z,100160.22
2022-11-29T11:00:58.024Z,100154.72
2022-11-29T11:03:35.438Z,100156.63
2022-11-29T11:06:17.355Z,100147.28
2022-11-29T11:08:48.381Z,100157.09
2022-11-29T11:11:24.720Z,100149.94
2022-11-29T11:14:23.032Z,100150.03
2022-11-29T11:16:49.958Z,100154.22
2022-11-29T11:19:32.026Z,100161.41
2022-11-29T11:22:00.988Z,100163.56
2022-11-29T11:24:33.192Z,100159.50
2022-11-29T11:27:00.722Z,100165.97
2022-11-29T11:29:39.550Z,100159.97
2022-11-29T11:32:16.457Z,100159.97
2022-11-29T11:34:54.705Z,100164.50
2022-11-29T11:37:31.441Z,100165.97
2022-11-29T11:40:01.334Z,100168.69
2022-11-29T11:42:38.309Z,100163.56
2022-11-29T11:45:10.727Z,100158.56
2022-11-29T11:47:46.520Z,100161.63
2022-11-29T11:50:16.660Z,100169.41
2022-11-29T11:52:53.386Z,100168.28
2022-11-29T11:55:36.412Z,100161.88
2022-11-29T11:58:10.627Z,100161.88
2022-11-29T12:03:36.977Z,100163.78
2022-11-29T12:06:11.952Z,100177.06
2022-11-29T12:08:39.558Z,100170.72
2022-11-29T12:11:10.679Z,100166.53
2022-11-29T12:13:44.155Z,100177.66
2022-11-29T12:16:16.492Z,100175.38
2022-11-29T12:18:48.922Z,100177.19
2022-11-29T12:21:17.657Z,100179.81
2022-11-29T12:23:49.549Z,100174.78
2022-11-29T12:26:55.361Z,100177.91
2022-11-29T12:29:14.637Z,100184.16
2022-11-29T12:31:58.456Z,100181.75
2022-11-29T12:34:43.478Z,100183.91
2022-11-29T12:37:25.627Z,100187.72
2022-11-29T12:40:19.872Z,100188.69
2022-11-29T12:42:57.149Z,100188.69
2022-11-29T12:45:33.683Z,100193.69
2022-11-29T12:48:10.123Z,100192.28
2022-11-29T12:50:59.275Z,100185.31
2022-11-29T12:53:27.436Z,100190.59
2022-11-29T12:56:13.553Z,100190.59
2022-11-29T12:58:49.012Z,100201.72
2022-11-29T13:01:29.148Z,100191.78
2022-11-29T13:04:14.262Z,100198.22
2022-11-29T13:06:49.326Z,100202.34
2022-11-29T13:09:15.671Z,100206.75
2022-11-29T13:12:11.326Z,100206.53
2022-11-29T13:14:54.322Z,100202.53
2022-11-29T13:17:47.090Z,100205.66
2022-11-29T13:20:25.382Z,100210.06
2022-11-29T13:23:01.339Z,100200.75
2022-11-29T13:25:35.130Z,100202.19
2022-11-29T13:28:11.035Z,100207.84
2022-11-29T13:30:39.093Z,100215.50
2022-11-29T13:33:19.875Z,100217.16
2022-11-29T13:35:46.269Z,100218.13
2022-11-29T13:38:24.683Z,100220.97
2022-11-29T13:40:58.188Z,100216.19
2022-11-29T13:43:38.294Z,100227.69
2022-11-29T13:46:14.206Z,100221.94
2022-11-29T13:48:47.722Z,100236.31
2022-11-29T13:51:28.068Z,100225.78
2022-11-29T13:53:56.419Z,100222.78
2022-11-29T13:56:46.632Z,100228.66
2022-11-29T13:59:24.203Z,100233.69
2022-11-29T14:01:53.745Z,100235.97
2022-11-29T14:04:20.137Z,100233.44
2022-11-29T14:06:48.307Z,100226.75
2022-11-29T14:09:33.504Z,100242.31
2022-11-29T14:12:17.673Z,100235.81
2022-11-29T14:15:06.011Z,100232.25
2022-11-29T14:17:33.871Z,100234.41
2022-11-29T14:20:22.192Z,100229.88
2022-11-29T14:23:03.827Z,100233.44
2022-11-29T14:25:52.416Z,100241.56
2022-11-29T14:28:21.776Z,100241.81
2022-11-29T14:31:01.899Z,100239.91
2022-11-29T14:33:33.611Z,100248.63
2022-11-29T14:36:15.298Z,100238.25
2022-11-29T14:38:52.344Z,100238.47
2022-11-29T14:41:33.011Z,100239.41
2022-11-29T14:44:30.781Z,100241.81
2022-11-29T14:47:06.737Z,100246.25
2022-11-29T14:49:44.344Z,100243.25
2022-11-29T14:52:13.693Z,100246.59
2022-11-29T14:54:59.730Z,100251.88
2022-11-29T14:57:44.726Z,100252.09
2022-11-29T15:00:12.556Z,100252.09
2022-11-29T15:02:44.257Z,100253.03
2022-11-29T15:05:13.448Z,100257.56
2022-11-29T15:07:46.886Z,100251.63
2022-11-29T15:10:21.068Z,100260.22
2022-11-29T15:12:49.424Z,100261.19
2022-11-29T15:15:28.077Z,100262.16
2022-11-29T15:18:11.459Z,100266.34
2022-11-29T15:21:00.730Z,100269.78
2022-11-29T15:23:27.101Z,100266.19
2022-11-29T15:25:59.576Z,100271.69
2022-11-29T15:28:28.764Z,100267.63
2022-11-29T15:31:07.901Z,100287.69
2022-11-29T15:33:37.127Z,100285.09
2022-11-29T15:36:06.999Z,100280.53
2022-11-29T15:38:51.855Z,100283.25
2022-11-29T15:41:28.597Z,100279.81
2022-11-29T15:44:04.481Z,100292.94
2022-11-29T15:46:32.877Z,100287.00
2022-11-29T15:49:17.953Z,100294.16
2022-11-29T15:51:48.445Z,100289.63
2022-11-29T15:54:23.644Z,100296.31
2022-11-29T15:57:04.008Z,100301.22
2022-11-29T15:59:51.619Z,100294.88
2022-11-29T16:02:25.869Z,100301.44
2022-11-29T16:04:57.042Z,100302.28
2022-11-29T16:07:25.911Z,100298.69
2022-11-29T16:09:59.838Z,100310.03
2022-11-29T16:12:26.413Z,100308.69
2022-11-29T16:14:58.512Z,100305.47
2022-11-29T16:17:27.151Z,100302.97
2022-11-29T16:20:13.413Z,100314.91
2022-11-29T16:22:40.104Z,100319.22
2022-11-29T16:25:15.491Z,100325.22
2022-11-29T16:27:42.651Z,100322.22
2022-11-29T16:30:24.607Z,100327.09
2022-11-29T16:32:59.165Z,100324.38
2022-11-29T16:35:33.672Z,100328.44
2022-11-29T16:38:04.409Z,100331.38
2022-11-29T16:40:33.097Z,100335.81
2022-11-29T16:43:20.094Z,100334.84
2022-11-29T16:45:46.929Z,100344.44
2022-11-29T16:48:22.542Z,100344.81
2022-11-29T16:51:20.323Z,100343.13
2022-11-29T16:53:53.057Z,100344.22
2022-11-29T16:56:23.554Z,100340.72
2022-11-29T16:59:20.929Z,100349.13
2022-11-29T17:01:40.460Z,100344.81
2022-11-29T17:04:09.026Z,100345.28
2022-11-29T17:06:35.929Z,100348.59
2022-11-29T17:09:02.652Z,100350.13
2022-11-29T17:11:29.050Z,100345.03
2022-11-29T17:13:55.388Z,100351.38
2022-11-29T17:16:23.632Z,100359.56
2022-11-29T17:18:52.635Z,100363.41
2022-11-29T17:21:25.304Z,100363.25
2022-11-29T17:23:53.038Z,100368.19
2022-11-29T17:26:20.610Z,100366.75
2022-11-29T17:28:48.366Z,100374.97
2022-11-29T17:31:23.181Z,100365.28
2022-11-29T17:33:50.460Z,100369.09
2022-11-29T17:36:19.603Z,100363.84
2022-11-29T17:38:46.614Z,100366.75
2022-11-29T17:41:16.645Z,100374.44
2022-11-29T17:43:43.048Z,100381.25
2022-11-29T17:46:14.318Z,100385.25
2022-11-29T17:48:41.167Z,100385.16
2022-11-29T17:51:22.875Z,100395.56
2022-11-29T17:53:55.504Z,100390.44
2022-11-29T17:56:24.640Z,100392.31
2022-11-29T17:58:52.809Z,100401.25
2022-11-29T18:01:21.805Z,100399.38
2022-11-29T18:03:51.180Z,100392.41
2022-11-29T18:06:20.166Z,100400.44
2022-11-29T18:08:48.745Z,100396.84
2022-11-29T18:11:21.404Z,100400.22
2022-11-29T18:13:48.694Z,100403.16
2022-11-29T18:16:20.754Z,100401.16
2022-11-29T18:18:47.649Z,100397.81
2022-11-29T18:21:14.399Z,100393.59
2022-11-29T18:23:42.639Z,100405.91
2022-11-29T18:26:12.710Z,100402.47
2022-11-29T18:28:40.429Z,100400.22
2022-11-29T18:31:28.151Z,100407.13
2022-11-29T18:33:57.466Z,100401.88
2022-11-29T18:36:26.202Z,100407.34
2022-11-29T18:38:57.536Z,100398.09
2022-11-29T18:41:24.843Z,100402.72
2022-11-29T18:44:03.520Z,100409.44
2022-11-29T18:46:32.637Z,100394.72
2022-11-29T18:49:00.999Z,100404.84
2022-11-29T18:51:29.278Z,100404.03
2022-11-29T18:53:56.528Z,100403.44
2022-11-29T18:56:24.771Z,100410.72
2022-11-29T18:59:00.196Z,100403.56
2022-11-29T19:01:29.332Z,100413.88
2022-11-29T19:03:58.330Z,100406.69
2022-11-29T19:06:39.366Z,100410.28
2022-11-29T19:09:09.601Z,100407.97
2022-11-29T19:11:35.979Z,100419.13
2022-11-29T19:14:11.295Z,100417.44
2022-11-29T19:16:40.341Z,100416.59
2022-11-29T19:19:07.036Z,100423.13
2022-11-29T19:21:34.556Z,100420.03
2022-11-29T19:24:03.794Z,100417.59
2022-11-29T19:26:31.563Z,100422.31
2022-11-29T19:29:00.225Z,100422.31
2022-11-29T19:31:27.389Z,100423.56
2022-11-29T19:33:54.801Z,100433.25
2022-11-29T19:36:26.768Z,100427.25
2022-11-29T19:38:54.561Z,100423.94
2022-11-29T19:41:29.778Z,100429.66
2022-11-29T19:43:57.605Z,100430.72
2022-11-29T19:46:26.883Z,100433.66
2022-11-29T19:48:54.953Z,100430.53
2022-11-29T19:51:22.687Z,100424.84
2022-11-29T19:53:53.083Z,100428.84
2022-11-29T19:56:20.459Z,100435.97
2022-11-29T19:58:47.291Z,100430.72
2022-11-29T20:01:22.898Z,100439.34
2022-11-29T20:03:49.722Z,100436.19
2022-11-29T20:06:16.868Z,100442.41
2022-11-29T20:08:44.570Z,100440.63
2022-11-29T20:11:13.980Z,100452.19
2022-11-29T20:13:42.344Z,100446.94
2022-11-29T20:16:11.952Z,100449.69
2022-11-29T20:18:43.539Z,100458.88
2022-11-29T20:21:15.616Z,100459.56
2022-11-29T20:23:43.018Z,100461.75
2022-11-29T20:26:17.935Z,100464.50
2022-11-29T20:28:44.816Z,100465.88
2022-11-29T20:31:13.934Z,100471.34
2022-11-29T20:33:41.952Z,100470.81
2022-11-29T20:36:38.352Z,100465.25
2022-11-29T20:39:25.787Z,100466.09
2022-11-29T20:42:23.147Z,100470.50
2022-11-29T20:44:57.832Z,100466.09
2022-11-29T20:47:27.181Z,100471.69
2022-11-29T20:49:54.197Z,100463.16
2022-11-29T20:52:42.271Z,100471.03
2022-11-29T20:55:09.250Z,100473.66
2022-11-29T20:57:38.215Z,100475.59
2022-11-29T21:00:07.284Z,100469.81
2022-11-29T21:02:33.681Z,100475.78
2022-11-29T21:05:00.084Z,100472.84
2022-11-29T21:07:26.479Z,100470.53
2022-11-29T21:09:56.672Z,100476.63
2022-11-29T21:12:27.832Z,100470.44
2022-11-29T21:14:54.525Z,100476.84
2022-11-29T21:17:21.217Z,100466.56
2022-11-29T21:19:47.846Z,100471.38
2022-11-29T21:22:23.377Z,100479.19
2022-11-29T21:25:25.235Z,100479.81
2022-11-29T21:27:52.615Z,100481.72
2022-11-29T21:30:22.088Z,100480.22
2022-11-29T21:32:49.213Z,100478.66
2022-11-29T21:35:15.913Z,100482.97
2022-11-29T21:37:43.154Z,100494.31
2022-11-29T21:40:10.909Z,100491.88
2022-11-29T21:42:37.908Z,100493.06
2022-11-29T21:45:08.188Z,100493.25
2022-11-29T21:47:39.719Z,100485.47
2022-11-29T21:50:06.869Z,100491.47
2022-11-29T21:52:33.361Z,100490.09
2022-11-29T21:54:59.732Z,100483.59
2022-11-29T21:57:26.135Z,100494.31
2022-11-29T21:59:52.983Z,100494.31
2022-11-29T22:02:19.466Z,100490.72
2022-11-29T22:04:46.065Z,100498.81
2022-11-29T22:07:12.660Z,100491.78
2022-11-29T22:09:39.029Z,100486.72
2022-11-29T22:12:25.800Z,100491.78
2022-11-29T22:14:52.111Z,100485.69
2022-11-29T22:17:18.477Z,100488.44
2022-11-29T22:19:44.832Z,100485.59
2022-11-29T22:22:11.249Z,100490.72
2022-11-29T22:24:37.850Z,100488.84
2022-11-29T22:27:04.399Z,100493.69
2022-11-29T22:29:30.908Z,100498.53
2022-11-29T22:31:59.146Z,100495.16
2022-11-29T22:34:27.086Z,100496.81
2022-11-29T22:36:53.716Z,100491.78
2022-11-29T22:39:20.072Z,100496.81
2022-11-29T22:41:50.802Z,100488.22
2022-11-29T22:44:20.617Z,100488.00
2022-11-29T22:46:46.989Z,100496.41
2022-11-29T22:49:13.421Z,100494.31
2022-11-29T22:51:39.929Z,100488.44
2022-11-29T22:54:08.980Z,100493.34
2022-11-29T22:56:38.165Z,100495.56
2022-11-29T22:59:05.427Z,100498.31
2022-11-29T23:01:34.677Z,100493.25
2022-11-29T23:04:03.947Z,100491.34
2022-11-29T23:06:32.917Z,100501.88
2022-11-29T23:09:05.257Z,100502.94
2022-11-29T23:11:32.186Z,100504.50
2022-11-29T23:13:58.571Z,100510.69
2022-11-29T23:16:27.977Z,100506.41
2022-11-29T23:18:56.392Z,100504.41
2022-11-29T23:21:29.405Z,100510.69
2022-11-29T23:23:57.015Z,100505.44
2022-11-29T23:26:39.633Z,100508.16
2022-11-29T23:29:08.393Z,100501.44
2022-11-29T23:31:34.946Z,100506.91
2022-11-29T23:34:02.239Z,100503.88
2022-11-29T23:36:28.937Z,100507.53
2022-11-29T23:38:55.279Z,100504.19
2022-11-29T23:41:21.651Z,100502.06
2022-11-29T23:43:47.995Z,100500.19
2022-11-29T23:46:16.744Z,100502.50
2022-11-29T23:48:43.872Z,100506.06
2022-11-29T23:51:10.912Z,100507.13
2022-11-29T23:53:37.578Z,100504.91
2022-11-29T23:56:11.370Z,100498.72
2022-11-29T23:58:38.082Z,100496.81
